createdAt,value
2023-06-17T00:01:35.423Z,98378.22
2023-06-17T00:04:04.001Z,98380.47
2023-06-17T00:06:30.893Z,98383.34
2023-06-17T00:08:58.623Z,98385.91
2023-06-17T00:11:25.455Z,98390.59
2023-06-17T00:13:53.313Z,98389.28
2023-06-17T00:16:22.102Z,98389.91
2023-06-17T00:18:53.036Z,98385.03
2023-06-17T00:21:20.549Z,98386.47
2023-06-17T00:23:47.387Z,98385.94
2023-06-17T00:26:14.233Z,98387.38
2023-06-17T00:28:41.013Z,98386.88
2023-06-17T00:31:07.752Z,98390.75
2023-06-17T00:33:34.528Z,98382.81
2023-06-17T00:36:01.348Z,98382.12
2023-06-17T00:38:28.151Z,98389.56
2023-06-17T00:40:55.098Z,98386.63
2023-06-17T00:43:21.874Z,98385.31
2023-06-17T00:45:48.717Z,98382.34
2023-06-17T00:48:15.952Z,98382.12
2023-06-17T00:50:45.332Z,98380.28
2023-06-17T00:53:12.406Z,98381.53
2023-06-17T00:55:40.670Z,98383.78
2023-06-17T00:58:07.596Z,98380.84
2023-06-17T01:00:34.435Z,98378.72
2023-06-17T01:03:01.533Z,98379.59
2023-06-17T01:05:28.788Z,98385.41
2023-06-17T01:08:14.128Z,98387.44
2023-06-17T01:10:44.006Z,98381.16
2023-06-17T01:13:13.324Z,98377.19
2023-06-17T01:15:40.934Z,98376.38
2023-06-17T01:18:08.972Z,98381.69
2023-06-17T01:20:37.365Z,98379.00
2023-06-17T01:23:06.678Z,98379.81
2023-06-17T01:25:35.824Z,98374.75
2023-06-17T01:28:20.882Z,98375.88
2023-06-17T01:30:49.346Z,98374.84
2023-06-17T01:33:16.800Z,98379.84
2023-06-17T01:35:56.820Z,98381.78
2023-06-17T01:38:33.634Z,98378.53
2023-06-17T01:41:09.794Z,98379.63
2023-06-17T01:43:37.802Z,98379.09
2023-06-17T01:46:07.021Z,98384.38
2023-06-17T01:48:34.037Z,98382.56
2023-06-17T01:51:00.888Z,98375.25
2023-06-17T01:53:27.901Z,98381.66
2023-06-17T01:55:54.740Z,98383.88
2023-06-17T01:58:21.593Z,98388.34
2023-06-17T02:00:48.572Z,98390.56
2023-06-17T02:03:17.253Z,98389.75
2023-06-17T02:05:44.592Z,98383.25
2023-06-17T02:08:12.818Z,98386.56
2023-06-17T02:10:39.636Z,98386.34
2023-06-17T02:13:06.482Z,98387.78
2023-06-17T02:15:33.355Z,98384.53
2023-06-17T02:18:00.417Z,98391.72
2023-06-17T02:20:27.987Z,98391.19
2023-06-17T02:22:54.793Z,98385.19
2023-06-17T02:25:21.593Z,98395.13
2023-06-17T02:27:49.711Z,98386.91
2023-06-17T02:30:16.570Z,98391.59
2023-06-17T02:32:43.415Z,98388.94
2023-06-17T02:35:11.632Z,98386.78
2023-06-17T02:37:39.072Z,98393.19
2023-06-17T02:40:10.367Z,98391.56
2023-06-17T02:42:37.835Z,98393.50
2023-06-17T02:45:05.751Z,98403.69
2023-06-17T02:47:32.647Z,98400.44
2023-06-17T02:49:59.783Z,98394.44
2023-06-17T02:52:26.608Z,98403.28
2023-06-17T02:54:53.443Z,98397.56
2023-06-17T02:57:20.301Z,98398.19
2023-06-17T02:59:47.645Z,98390.75
2023-06-17T03:02:14.530Z,98390.56
2023-06-17T03:04:42.196Z,98394.97
2023-06-17T03:07:08.962Z,98399.94
2023-06-17T03:09:35.769Z,98396.38
2023-06-17T03:12:04.266Z,98397.59
2023-06-17T03:14:31.361Z,98409.38
2023-06-17T03:17:02.336Z,98398.19
2023-06-17T03:19:29.390Z,98401.53
2023-06-17T03:21:57.109Z,98405.97
2023-06-17T03:24:24.549Z,98405.97
2023-06-17T03:26:52.683Z,98407.59
2023-06-17T03:29:19.564Z,98403.75
2023-06-17T03:31:46.503Z,98400.19
2023-06-17T03:34:13.288Z,98401.81
2023-06-17T03:36:41.150Z,98408.72
2023-06-17T03:39:08.037Z,98402.13
2023-06-17T03:41:34.770Z,98402.03
2023-06-17T03:44:01.789Z,98401.53
2023-06-17T03:46:28.590Z,98400.91
2023-06-17T03:48:55.425Z,98396.78
2023-06-17T03:51:22.296Z,98399.22
2023-06-17T03:53:49.060Z,98405.72
2023-06-17T03:56:15.921Z,98404.91
2023-06-17T03:58:42.840Z,98409.53
2023-06-17T04:01:13.894Z,98403.97
2023-06-17T04:03:41.571Z,98413.22
2023-06-17T04:06:09.393Z,98410.69
2023-06-17T04:08:38.488Z,98412.53
2023-06-17T04:11:06.178Z,98413.56
2023-06-17T04:13:32.990Z,98412.69
2023-06-17T04:15:59.801Z,98404.66
2023-06-17T04:18:28.449Z,98416.37
2023-06-17T04:20:57.627Z,98408.34
2023-06-17T04:23:25.664Z,98412.62
2023-06-17T04:25:52.685Z,98421.91
2023-06-17T04:28:20.161Z,98419.38
2023-06-17T04:30:47.386Z,98425.06
2023-06-17T04:33:15.734Z,98426.09
2023-06-17T04:35:43.657Z,98430.69
2023-06-17T04:38:11.805Z,98432.28
2023-06-17T04:40:39.043Z,98432.47
2023-06-17T04:43:05.894Z,98417.03
2023-06-17T04:45:33.175Z,98419.38
2023-06-17T04:48:00.075Z,98411.03
2023-06-17T04:50:26.951Z,98421.13
2023-06-17T04:52:53.768Z,98424.59
2023-06-17T04:55:22.455Z,98420.91
2023-06-17T04:57:49.313Z,98420.00
2023-06-17T05:00:19.955Z,98426.19
2023-06-17T05:02:48.359Z,98429.69
2023-06-17T05:05:15.167Z,98442.50
2023-06-17T05:07:41.980Z,98439.13
2023-06-17T05:10:09.169Z,98435.97
2023-06-17T05:12:36.576Z,98443.28
2023-06-17T05:15:03.591Z,98438.84
2023-06-17T05:17:30.409Z,98441.47
2023-06-17T05:19:57.424Z,98442.50
2023-06-17T05:22:24.244Z,98449.53
2023-06-17T05:24:51.330Z,98445.53
2023-06-17T05:27:18.289Z,98446.28
2023-06-17T05:29:45.224Z,98442.28
2023-06-17T05:32:12.043Z,98449.59
2023-06-17T05:34:38.844Z,98449.00
2023-06-17T05:37:05.794Z,98453.87
2023-06-17T05:39:32.614Z,98454.41
2023-06-17T05:41:59.436Z,98449.41
2023-06-17T05:44:26.250Z,98452.97
2023-06-17T05:46:53.025Z,98451.84
2023-06-17T05:49:19.789Z,98453.97
2023-06-17T05:51:46.532Z,98449.47
2023-06-17T05:54:13.376Z,98450.47
2023-06-17T05:56:40.171Z,98446.47
2023-06-17T05:59:07.265Z,98453.50
2023-06-17T06:01:34.182Z,98454.69
2023-06-17T06:04:01.177Z,98462.19
2023-06-17T06:06:27.982Z,98458.72
2023-06-17T06:08:54.848Z,98450.84
2023-06-17T06:11:21.840Z,98463.06
2023-06-17T06:13:48.610Z,98457.94
2023-06-17T06:16:15.478Z,98460.75
2023-06-17T06:18:42.271Z,98454.47
2023-06-17T06:21:09.037Z,98458.44
2023-06-17T06:23:37.118Z,98462.84
2023-06-17T06:26:04.156Z,98466.28
2023-06-17T06:28:31.042Z,98463.09
2023-06-17T06:30:57.923Z,98462.31
2023-06-17T06:33:24.768Z,98473.69
2023-06-17T06:35:51.585Z,98470.78
2023-06-17T06:38:18.394Z,98464.53
2023-06-17T06:40:45.182Z,98459.38
2023-06-17T06:43:11.946Z,98459.72
2023-06-17T06:45:38.879Z,98459.59
2023-06-17T06:48:06.053Z,98466.09
2023-06-17T06:50:34.395Z,98464.78
2023-06-17T06:53:01.353Z,98466.44
2023-06-17T06:55:29.725Z,98472.00
2023-06-17T06:57:56.671Z,98476.69
2023-06-17T07:00:23.781Z,98469.87
2023-06-17T07:02:50.792Z,98478.84
2023-06-17T07:05:17.872Z,98479.00
2023-06-17T07:07:45.623Z,98479.81
2023-06-17T07:10:12.517Z,98484.19
2023-06-17T07:12:39.360Z,98479.50
2023-06-17T07:15:06.873Z,98484.37
2023-06-17T07:17:33.915Z,98476.56
2023-06-17T07:20:00.888Z,98480.62
2023-06-17T07:22:27.682Z,98474.78
2023-06-17T07:24:54.464Z,98476.72
2023-06-17T07:27:21.272Z,98473.16
2023-06-17T07:29:48.086Z,98482.78
2023-06-17T07:32:14.896Z,98465.22
2023-06-17T07:34:41.709Z,98474.50
2023-06-17T07:37:08.508Z,98475.16
2023-06-17T07:39:35.257Z,98474.66
2023-06-17T07:42:02.302Z,98473.88
2023-06-17T07:44:29.086Z,98473.38
2023-06-17T07:46:56.652Z,98470.91
2023-06-17T07:49:23.567Z,98471.56
2023-06-17T07:51:50.659Z,98472.38
2023-06-17T07:54:17.953Z,98467.16
2023-06-17T07:56:44.790Z,98460.47
2023-06-17T07:59:11.528Z,98467.97
2023-06-17T08:01:38.448Z,98469.22
2023-06-17T08:04:05.477Z,98465.62
2023-06-17T08:06:32.339Z,98468.34
2023-06-17T08:08:59.592Z,98461.50
2023-06-17T08:11:26.382Z,98464.06
2023-06-17T08:13:53.418Z,98467.34
2023-06-17T08:16:20.244Z,98456.91
2023-06-17T08:18:47.108Z,98462.37
2023-06-17T08:21:13.982Z,98458.28
2023-06-17T08:23:41.690Z,98460.53
2023-06-17T08:26:08.636Z,98460.03
2023-06-17T08:28:35.601Z,98461.13
2023-06-17T08:31:03.236Z,98459.94
2023-06-17T08:33:30.878Z,98457.91
2023-06-17T08:35:57.718Z,98460.59
2023-06-17T08:38:24.557Z,98458.72
2023-06-17T08:40:51.577Z,98454.25
2023-06-17T08:43:21.327Z,98454.88
2023-06-17T08:45:49.720Z,98459.06
2023-06-17T08:48:17.321Z,98458.19
2023-06-17T08:50:46.321Z,98450.94
2023-06-17T08:53:16.170Z,98455.16
2023-06-17T08:55:43.891Z,98459.66
2023-06-17T08:58:11.595Z,98456.22
2023-06-17T09:00:38.726Z,98457.50
2023-06-17T09:03:09.392Z,98461.06
2023-06-17T09:05:36.824Z,98455.53
2023-06-17T09:08:04.207Z,98453.09
2023-06-17T09:10:42.608Z,98457.03
2023-06-17T09:13:09.835Z,98459.31
2023-06-17T09:15:41.669Z,98455.28
2023-06-17T09:18:09.258Z,98461.50
2023-06-17T09:20:36.267Z,98455.50
2023-06-17T09:23:03.366Z,98449.16
2023-06-17T09:25:35.083Z,98455.84
2023-06-17T09:28:16.247Z,98460.22
2023-06-17T09:30:45.032Z,98455.50
2023-06-17T09:33:20.171Z,98456.44
2023-06-17T09:35:48.433Z,98450.00
2023-06-17T09:38:20.967Z,98442.41
2023-06-17T09:40:49.917Z,98440.81
2023-06-17T09:43:27.479Z,98447.06
2023-06-17T09:45:58.262Z,98441.78
2023-06-17T09:48:26.192Z,98439.25
2023-06-17T09:50:57.170Z,98444.25
2023-06-17T09:53:27.316Z,98443.34
2023-06-17T09:55:59.814Z,98439.28
2023-06-17T09:58:32.222Z,98435.72
2023-06-17T10:01:07.762Z,98443.56
2023-06-17T10:03:36.376Z,98442.16
2023-06-17T10:06:13.090Z,98432.13
2023-06-17T10:08:52.059Z,98438.81
2023-06-17T10:11:20.702Z,98434.75
2023-06-17T10:14:11.506Z,98431.06
2023-06-17T10:16:45.061Z,98437.28
2023-06-17T10:19:14.729Z,98436.22
2023-06-17T10:21:45.434Z,98434.69
2023-06-17T10:24:12.943Z,98432.84
2023-06-17T10:26:40.241Z,98440.47
2023-06-17T10:29:08.415Z,98443.72
2023-06-17T10:31:43.861Z,98445.69
2023-06-17T10:34:16.171Z,98445.59
2023-06-17T10:36:43.134Z,98439.56
2023-06-17T10:39:11.885Z,98433.53
2023-06-17T10:41:41.462Z,98442.94
2023-06-17T10:44:36.504Z,98439.69
2023-06-17T10:47:15.477Z,98437.63
2023-06-17T10:49:47.846Z,98440.66
2023-06-17T10:52:15.762Z,98438.22
2023-06-17T10:54:50.506Z,98434.41
2023-06-17T10:57:17.380Z,98426.62
2023-06-17T10:59:44.152Z,98429.63
2023-06-17T11:02:11.232Z,98418.34
2023-06-17T11:04:42.309Z,98419.09
2023-06-17T11:07:10.231Z,98419.88
2023-06-17T11:09:37.555Z,98424.03
2023-06-17T11:12:05.354Z,98421.00
2023-06-17T11:14:33.906Z,98412.28
2023-06-17T11:17:00.959Z,98417.97
2023-06-17T11:19:27.912Z,98414.94
2023-06-17T11:21:58.748Z,98412.78
2023-06-17T11:24:26.862Z,98411.81
2023-06-17T11:26:55.429Z,98409.31
2023-06-17T11:29:22.330Z,98407.16
2023-06-17T11:31:49.134Z,98407.47
2023-06-17T11:34:16.130Z,98407.19
2023-06-17T11:36:42.980Z,98402.44
2023-06-17T11:39:13.148Z,98404.84
2023-06-17T11:41:40.429Z,98398.84
2023-06-17T11:44:07.954Z,98407.19
2023-06-17T11:46:38.582Z,98400.91
2023-06-17T11:49:08.733Z,98392.25
2023-06-17T11:51:37.372Z,98395.59
2023-06-17T11:54:07.474Z,98398.91
2023-06-17T11:56:34.370Z,98389.56
2023-06-17T11:59:02.568Z,98392.97
2023-06-17T12:01:29.481Z,98388.44
2023-06-17T12:03:57.751Z,98387.78
2023-06-17T12:06:25.317Z,98381.97
2023-06-17T12:09:04.116Z,98381.22
2023-06-17T12:11:32.989Z,98381.31
2023-06-17T12:14:00.295Z,98377.87
2023-06-17T12:16:32.296Z,98375.59
2023-06-17T12:19:00.708Z,98382.56
2023-06-17T12:21:27.707Z,98381.16
2023-06-17T12:23:57.972Z,98372.97
2023-06-17T12:26:25.326Z,98370.31
2023-06-17T12:28:55.497Z,98370.75
2023-06-17T12:31:23.367Z,98366.34
2023-06-17T12:33:50.611Z,98365.53
2023-06-17T12:36:18.113Z,98372.22
2023-06-17T12:38:45.944Z,98368.91
2023-06-17T12:41:13.033Z,98367.22
2023-06-17T12:43:40.434Z,98365.19
2023-06-17T12:46:08.382Z,98366.34
2023-06-17T12:48:35.251Z,98367.59
2023-06-17T12:51:02.913Z,98361.72
2023-06-17T12:53:29.709Z,98362.69
2023-06-17T12:55:56.878Z,98367.22
2023-06-17T12:58:25.420Z,98374.94
2023-06-17T13:00:53.294Z,98366.19
2023-06-17T13:03:20.206Z,98370.59
2023-06-17T13:05:51.537Z,98368.19
2023-06-17T13:08:18.547Z,98363.84
2023-06-17T13:10:45.358Z,98367.44
2023-06-17T13:13:12.239Z,98361.87
2023-06-17T13:15:39.903Z,98373.03
2023-06-17T13:18:08.432Z,98378.16
2023-06-17T13:20:35.486Z,98378.09
2023-06-17T13:23:02.480Z,98381.59
2023-06-17T13:25:29.246Z,98380.72
2023-06-17T13:27:56.082Z,98378.69
2023-06-17T13:30:23.202Z,98383.06
2023-06-17T13:32:50.383Z,98374.03
2023-06-17T13:35:17.533Z,98372.22
2023-06-17T13:37:44.433Z,98377.94
2023-06-17T13:40:11.799Z,98364.56
2023-06-17T13:42:38.817Z,98361.97
2023-06-17T13:45:06.277Z,98368.09
2023-06-17T13:47:34.253Z,98366.66
2023-06-17T13:50:01.444Z,98360.41
2023-06-17T13:52:28.353Z,98356.97
2023-06-17T13:54:55.194Z,98360.66
2023-06-17T13:57:23.181Z,98359.19
2023-06-17T13:59:50.784Z,98354.84
2023-06-17T14:02:17.768Z,98355.66
2023-06-17T14:04:45.034Z,98370.78
2023-06-17T14:07:11.866Z,98379.84
2023-06-17T14:09:38.995Z,98383.69
2023-06-17T14:12:06.399Z,98383.19
2023-06-17T14:14:33.257Z,98369.87
2023-06-17T14:17:01.103Z,98364.25
2023-06-17T14:19:29.257Z,98369.87
2023-06-17T14:22:00.544Z,98371.16
2023-06-17T14:24:29.261Z,98372.44
2023-06-17T14:27:27.223Z,98368.50
2023-06-17T14:29:54.033Z,98368.56
2023-06-17T14:32:20.904Z,98367.44
2023-06-17T14:34:48.002Z,98369.09
2023-06-17T14:37:14.871Z,98370.03
2023-06-17T14:39:41.657Z,98367.72
2023-06-17T14:42:08.721Z,98366.59
2023-06-17T14:44:35.576Z,98378.69
2023-06-17T14:47:02.408Z,98375.56
2023-06-17T14:49:29.303Z,98379.22
2023-06-17T14:51:56.297Z,98373.25
2023-06-17T14:54:23.648Z,98376.09
2023-06-17T14:56:50.644Z,98370.94
2023-06-17T14:59:17.626Z,98370.19
2023-06-17T15:01:44.542Z,98371.41
2023-06-17T15:04:13.456Z,98369.09
2023-06-17T15:06:41.520Z,98361.16
2023-06-17T15:09:26.083Z,98355.97
2023-06-17T15:12:04.245Z,98356.84
2023-06-17T15:14:34.799Z,98364.06
2023-06-17T15:17:02.148Z,98360.53
2023-06-17T15:19:28.975Z,98360.94
2023-06-17T15:21:55.963Z,98358.94
2023-06-17T15:24:22.862Z,98352.56
2023-06-17T15:26:49.678Z,98357.72
2023-06-17T15:29:16.906Z,98352.13
2023-06-17T15:31:43.939Z,98354.13
2023-06-17T15:34:11.490Z,98350.53
2023-06-17T15:36:38.394Z,98357.31
2023-06-17T15:39:19.147Z,98356.88
2023-06-17T15:41:47.766Z,98353.28
2023-06-17T15:44:15.921Z,98355.28
2023-06-17T15:46:43.637Z,98360.84
2023-06-17T15:49:11.028Z,98360.44
2023-06-17T15:51:37.952Z,98364.41
2023-06-17T15:54:05.338Z,98360.00
2023-06-17T15:56:32.529Z,98359.19
2023-06-17T15:59:00.934Z,98363.97
2023-06-17T16:01:28.345Z,98365.16
2023-06-17T16:03:57.602Z,98365.16
2023-06-17T16:06:24.481Z,98361.56
2023-06-17T16:08:52.476Z,98357.59
2023-06-17T16:11:19.773Z,98360.81
2023-06-17T16:13:46.628Z,98353.63
2023-06-17T16:16:13.483Z,98349.25
2023-06-17T16:18:40.374Z,98357.63
2023-06-17T16:21:07.468Z,98354.03
2023-06-17T16:23:34.295Z,98353.63
2023-06-17T16:26:02.062Z,98361.19
2023-06-17T16:28:28.920Z,98359.59
2023-06-17T16:30:55.866Z,98362.37
2023-06-17T16:33:22.706Z,98362.37
2023-06-17T16:35:49.639Z,98361.56
2023-06-17T16:38:16.424Z,98364.38
2023-06-17T16:40:43.244Z,98370.34
2023-06-17T16:43:09.997Z,98375.91
2023-06-17T16:45:36.863Z,98369.53
2023-06-17T16:48:03.859Z,98366.34
2023-06-17T16:50:30.933Z,98371.94
2023-06-17T16:52:57.734Z,98371.94
2023-06-17T16:55:24.533Z,98370.34
2023-06-17T16:57:51.507Z,98366.31
2023-06-17T17:00:19.575Z,98369.81
2023-06-17T17:02:46.669Z,98366.53
2023-06-17T17:05:13.447Z,98375.25
2023-06-17T17:07:40.275Z,98370.75
2023-06-17T17:10:07.343Z,98375.41
2023-06-17T17:12:34.158Z,98367.28
2023-06-17T17:15:01.094Z,98385.47
2023-06-17T17:17:28.029Z,98379.34
2023-06-17T17:19:55.669Z,98386.34
2023-06-17T17:22:22.516Z,98392.53
2023-06-17T17:24:49.354Z,98389.19
2023-06-17T17:27:16.349Z,98395.03
2023-06-17T17:29:43.196Z,98403.59
2023-06-17T17:32:10.050Z,98405.03
2023-06-17T17:34:36.852Z,98408.47
2023-06-17T17:37:03.895Z,98415.84
2023-06-17T17:39:30.692Z,98417.69
2023-06-17T17:41:57.514Z,98429.06
2023-06-17T17:44:24.352Z,98425.31
2023-06-17T17:46:51.450Z,98419.59
2023-06-17T17:49:18.256Z,98419.47
2023-06-17T17:51:45.074Z,98425.28
2023-06-17T17:54:11.842Z,98422.38
2023-06-17T17:56:38.631Z,98442.50
2023-06-17T17:59:05.514Z,98441.94
2023-06-17T18:01:32.298Z,98451.38
2023-06-17T18:03:59.534Z,98459.59
2023-06-17T18:06:26.930Z,98461.03
2023-06-17T18:08:53.722Z,98462.37
2023-06-17T18:11:20.524Z,98458.62
2023-06-17T18:13:47.296Z,98473.91
2023-06-17T18:16:14.263Z,98472.16
2023-06-17T18:18:41.104Z,98471.19
2023-06-17T18:21:07.901Z,98480.97
2023-06-17T18:23:34.666Z,98477.97
2023-06-17T18:26:01.523Z,98479.84
2023-06-17T18:28:28.319Z,98486.47
2023-06-17T18:30:55.167Z,98487.81
2023-06-17T18:33:21.962Z,98488.31
2023-06-17T18:35:48.855Z,98486.50
2023-06-17T18:38:15.754Z,98494.88
2023-06-17T18:40:42.645Z,98492.37
2023-06-17T18:43:09.449Z,98497.25
2023-06-17T18:45:36.312Z,98494.72
2023-06-17T18:48:03.965Z,98488.94
2023-06-17T18:50:31.209Z,98489.44
2023-06-17T18:52:58.098Z,98483.66
2023-06-17T18:55:24.861Z,98479.13
2023-06-17T18:57:54.078Z,98481.34
2023-06-17T19:00:21.351Z,98480.09
2023-06-17T19:02:48.425Z,98486.72
2023-06-17T19:05:15.263Z,98487.41
2023-06-17T19:07:45.231Z,98487.16
2023-06-17T19:10:12.446Z,98487.75
2023-06-17T19:12:40.374Z,98485.19
2023-06-17T19:15:10.130Z,98484.03
2023-06-17T19:17:40.323Z,98486.22
2023-06-17T19:20:08.681Z,98478.16
2023-06-17T19:22:37.602Z,98481.38
2023-06-17T19:25:06.145Z,98485.53
2023-06-17T19:27:33.837Z,98483.69
2023-06-17T19:30:02.568Z,98489.34
2023-06-17T19:32:29.883Z,98494.75
2023-06-17T19:34:59.041Z,98496.59
2023-06-17T19:37:30.222Z,98501.53
2023-06-17T19:39:57.066Z,98501.16
2023-06-17T19:42:23.930Z,98502.03
2023-06-17T19:44:57.277Z,98499.37
2023-06-17T19:47:25.968Z,98508.25
2023-06-17T19:49:53.785Z,98512.22
2023-06-17T19:52:21.220Z,98508.06
2023-06-17T19:54:48.623Z,98509.41
2023-06-17T19:57:15.378Z,98510.75
2023-06-17T19:59:42.529Z,98524.00
2023-06-17T20:02:11.058Z,98522.22
2023-06-17T20:04:37.848Z,98522.78
2023-06-17T20:07:04.814Z,98524.13
2023-06-17T20:09:31.695Z,98515.06
2023-06-17T20:11:58.460Z,98519.03
2023-06-17T20:14:25.245Z,98531.63
2023-06-17T20:16:52.970Z,98524.34
2023-06-17T20:19:19.803Z,98531.34
2023-06-17T20:21:46.810Z,98534.31
2023-06-17T20:24:13.710Z,98536.44
2023-06-17T20:26:40.522Z,98534.88
2023-06-17T20:29:07.341Z,98539.44
2023-06-17T20:31:34.159Z,98537.19
2023-06-17T20:34:01.004Z,98537.19
2023-06-17T20:36:27.805Z,98531.19
2023-06-17T20:38:54.584Z,98532.19
2023-06-17T20:41:21.383Z,98533.84
2023-06-17T20:43:48.415Z,98532.88
2023-06-17T20:46:15.282Z,98540.22
2023-06-17T20:48:42.111Z,98547.41
2023-06-17T20:51:11.215Z,98541.72
2023-06-17T20:53:38.324Z,98541.41
2023-06-17T20:56:05.101Z,98546.28
2023-06-17T20:58:31.941Z,98540.94
2023-06-17T21:00:58.945Z,98548.41
2023-06-17T21:03:25.887Z,98544.53
2023-06-17T21:05:52.696Z,98549.56
2023-06-17T21:08:19.490Z,98548.88
2023-06-17T21:10:46.357Z,98552.31
2023-06-17T21:13:13.135Z,98542.72
2023-06-17T21:15:39.939Z,98542.88
2023-06-17T21:18:07.080Z,98547.13
2023-06-17T21:20:33.947Z,98539.00
2023-06-17T21:23:00.983Z,98548.75
2023-06-17T21:25:27.817Z,98541.56
2023-06-17T21:27:54.569Z,98544.50
2023-06-17T21:30:21.679Z,98555.56
2023-06-17T21:32:48.878Z,98556.22
2023-06-17T21:35:16.724Z,98553.63
2023-06-17T21:37:43.548Z,98561.91
2023-06-17T21:40:11.104Z,98560.91
2023-06-17T21:42:38.056Z,98556.69
2023-06-17T21:45:05.457Z,98559.59
2023-06-17T21:47:32.246Z,98553.44
2023-06-17T21:49:59.605Z,98547.22
2023-06-17T21:52:26.393Z,98541.84
2023-06-17T21:54:53.210Z,98540.03
2023-06-17T21:57:20.996Z,98541.00
2023-06-17T21:59:47.815Z,98547.00
2023-06-17T22:02:14.877Z,98546.00
2023-06-17T22:04:41.750Z,98548.59
2023-06-17T22:07:08.568Z,98551.81
2023-06-17T22:09:35.413Z,98550.34
2023-06-17T22:12:02.238Z,98546.41
2023-06-17T22:14:29.068Z,98544.63
2023-06-17T22:16:56.171Z,98550.44
2023-06-17T22:19:22.914Z,98551.41
2023-06-17T22:21:49.808Z,98540.03
2023-06-17T22:24:16.839Z,98544.84
2023-06-17T22:26:43.824Z,98543.06
2023-06-17T22:29:10.712Z,98544.00
2023-06-17T22:31:37.497Z,98548.53
2023-06-17T22:34:04.322Z,98546.69
2023-06-17T22:36:31.169Z,98553.94
2023-06-17T22:38:58.046Z,98554.09
2023-06-17T22:41:24.867Z,98551.16
2023-06-17T22:43:51.786Z,98553.72
2023-06-17T22:46:18.805Z,98545.59
2023-06-17T22:48:45.692Z,98542.97
2023-06-17T22:51:12.479Z,98528.69
2023-06-17T22:53:39.600Z,98537.87
2023-06-17T22:56:06.582Z,98538.84
2023-06-17T22:58:33.392Z,98542.84
2023-06-17T23:01:00.225Z,98538.41
2023-06-17T23:03:27.025Z,98539.34
2023-06-17T23:05:53.818Z,98531.72
2023-06-17T23:08:20.663Z,98536.22
2023-06-17T23:10:47.664Z,98530.03
2023-06-17T23:13:15.496Z,98541.94
2023-06-17T23:15:42.364Z,98542.06
2023-06-17T23:18:09.228Z,98541.56
2023-06-17T23:20:36.111Z,98538.41
2023-06-17T23:23:05.029Z,98537.91
2023-06-17T23:25:32.448Z,98539.16
2023-06-17T23:27:59.866Z,98525.50
2023-06-17T23:30:26.624Z,98538.56
2023-06-17T23:32:53.524Z,98535.09
2023-06-17T23:35:20.679Z,98528.09
2023-06-17T23:37:47.498Z,98526.75
2023-06-17T23:40:14.369Z,98537.25
2023-06-17T23:42:41.648Z,98528.28
2023-06-17T23:45:09.226Z,98533.28
2023-06-17T23:47:36.298Z,98531.16
2023-06-17T23:50:03.280Z,98527.41
2023-06-17T23:52:30.099Z,98532.19
2023-06-17T23:54:56.856Z,98526.16
2023-06-17T23:57:23.759Z,98522.41
2023-06-17T23:59:50.657Z,98520.91
